Time;durP1;ratioP1;P1;durP2;ratioP2;P2;SDS_P1;SDS_P2;PMS_P1;PMS_P2;Temp;Humidity;BMP_temperature;BMP_pressure;BME280_temperature;BME280_humidity;BME280_pressure;Samples;Min_cycle;Max_cycle;Signal;HPM_P1;HPM_P2
2023/12/06 00:02:09;;;;;;;7.15;6.45;;;;;;;;;;4978479;28;20207;-60
2023/12/06 00:04:36;;;;;;;7.43;6.10;;;;;;;;;;4978362;28;20215;-60
2023/12/06 00:07:04;;;;;;;6.95;6.25;;;;;;;;;;4978421;28;20596;-60
2023/12/06 00:09:32;;;;;;;7.10;6.40;;;;;;;;;;4978128;28;20219;-60
2023/12/06 00:11:59;;;;;;;7.07;6.38;;;;;;;;;;4978072;28;20314;-60
2023/12/06 00:14:28;;;;;;;6.53;5.85;;;;;;;;;;4978378;28;20235;-60
2023/12/06 00:16:56;;;;;;;6.32;5.72;;;;;;;;;;4978148;28;20254;-60
2023/12/06 00:19:23;;;;;;;6.63;6.03;;;;;;;;;;4978543;28;20207;-60
2023/12/06 00:21:52;;;;;;;6.20;5.60;;;;;;;;;;4978627;28;20222;-60
2023/12/06 00:24:20;;;;;;;6.97;6.28;;;;;;;;;;4978156;28;20208;-60
2023/12/06 00:26:48;;;;;;;6.85;6.15;;;;;;;;;;4978405;28;20214;-60
2023/12/06 00:29:15;;;;;;;6.47;5.70;;;;;;;;;;4978140;28;20214;-60
2023/12/06 00:31:44;;;;;;;6.38;5.78;;;;;;;;;;4978197;28;20218;-60
2023/12/06 00:34:11;;;;;;;6.45;5.75;;;;;;;;;;4978369;28;20219;-60
2023/12/06 00:36:38;;;;;;;6.18;5.57;;;;;;;;;;4977832;28;20208;-60
2023/12/06 00:39:06;;;;;;;6.22;5.63;;;;;;;;;;4978627;28;20237;-60
2023/12/06 00:41:33;;;;;;;6.63;5.70;;;;;;;;;;4978301;28;20290;-60
2023/12/06 00:44:02;;;;;;;6.18;5.57;;;;;;;;;;4978169;28;20216;-60
2023/12/06 00:46:29;;;;;;;6.38;5.55;;;;;;;;;;4978039;28;20274;-60
2023/12/06 00:48:59;;;;;;;5.85;5.25;;;;;;;;;;4977910;28;20298;-60
2023/12/06 00:51:26;;;;;;;5.95;5.35;;;;;;;;;;4978043;28;20308;-60
2023/12/06 00:53:54;;;;;;;6.07;5.45;;;;;;;;;;4978084;28;20208;-60
2023/12/06 00:56:21;;;;;;;5.90;5.30;;;;;;;;;;4978052;28;20208;-60
2023/12/06 00:58:48;;;;;;;5.95;5.38;;;;;;;;;;4977767;28;20232;-60
2023/12/06 01:01:16;;;;;;;5.55;5.05;;;;;;;;;;4978265;28;20568;-60
2023/12/06 01:03:43;;;;;;;5.85;5.25;;;;;;;;;;4977704;28;20207;-60
2023/12/06 01:06:12;;;;;;;5.78;5.18;;;;;;;;;;4977757;28;20214;-60
2023/12/06 01:08:39;;;;;;;5.78;5.25;;;;;;;;;;4978756;28;20487;-60
2023/12/06 01:11:08;;;;;;;5.53;5.03;;;;;;;;;;4981759;28;20208;-60
2023/12/06 01:13:35;;;;;;;5.63;5.03;;;;;;;;;;4981497;28;20251;-60
2023/12/06 01:16:15;;;;;;;5.75;5.15;;;;;;;;;;4981278;28;20219;-60
2023/12/06 01:18:42;;;;;;;5.40;4.90;;;;;;;;;;4981406;28;20322;-60
2023/12/06 01:21:09;;;;;;;5.72;5.07;;;;;;;;;;4981421;28;20220;-60
2023/12/06 01:23:38;;;;;;;5.45;4.95;;;;;;;;;;4981279;28;20245;-60
2023/12/06 01:26:06;;;;;;;5.72;5.13;;;;;;;;;;4981210;28;20278;-60
2023/12/06 01:28:33;;;;;;;5.25;4.75;;;;;;;;;;4981118;28;20208;-60
2023/12/06 01:31:01;;;;;;;5.18;4.68;;;;;;;;;;4981174;28;20215;-60
2023/12/06 01:33:28;;;;;;;5.63;5.13;;;;;;;;;;4981195;28;20208;-60
2023/12/06 01:35:55;;;;;;;5.40;4.90;;;;;;;;;;4980870;28;20218;-60
2023/12/06 01:38:22;;;;;;;5.30;4.72;;;;;;;;;;4980753;28;20522;-60
2023/12/06 01:40:51;;;;;;;5.53;5.03;;;;;;;;;;4981185;28;20290;-60
2023/12/06 01:43:19;;;;;;;5.45;4.95;;;;;;;;;;4981007;28;20207;-60
2023/12/06 01:45:46;;;;;;;5.30;4.80;;;;;;;;;;4980713;28;20222;-60
2023/12/06 01:48:13;;;;;;;5.03;4.63;;;;;;;;;;4980902;28;20215;-60
2023/12/06 01:50:42;;;;;;;5.28;4.78;;;;;;;;;;4980736;28;20215;-60
2023/12/06 01:53:09;;;;;;;4.90;4.40;;;;;;;;;;4981187;28;20215;-60
2023/12/06 01:55:37;;;;;;;5.13;4.60;;;;;;;;;;4980701;28;20218;-60
2023/12/06 01:58:05;;;;;;;4.88;4.47;;;;;;;;;;4980461;28;20359;-60
2023/12/06 02:00:33;;;;;;;4.88;4.47;;;;;;;;;;4981062;28;20913;-60
2023/12/06 02:03:00;;;;;;;5.00;4.60;;;;;;;;;;4980533;28;20216;-60
2023/12/06 02:05:27;;;;;;;5.03;4.53;;;;;;;;;;4980475;28;20607;-60
2023/12/06 02:07:56;;;;;;;4.90;4.47;;;;;;;;;;4980768;28;20588;-60
2023/12/06 02:10:22;;;;;;;4.68;4.18;;;;;;;;;;4980206;28;20604;-60
2023/12/06 02:12:49;;;;;;;5.03;4.63;;;;;;;;;;4980314;28;20227;-60
2023/12/06 02:15:18;;;;;;;4.47;4.07;;;;;;;;;;4980601;28;20214;-60
2023/12/06 02:17:46;;;;;;;4.95;4.45;;;;;;;;;;4980423;28;20234;-60
2023/12/06 02:20:13;;;;;;;4.85;4.40;;;;;;;;;;4978549;28;20212;-60
2023/12/06 02:22:41;;;;;;;4.55;4.15;;;;;;;;;;4980357;28;20219;-60
2023/12/06 02:25:14;;;;;;;4.63;4.22;;;;;;;;;;4979786;28;20216;-60
2023/12/06 02:27:42;;;;;;;4.72;4.10;;;;;;;;;;4979976;28;20215;-60
2023/12/06 02:30:10;;;;;;;4.60;4.20;;;;;;;;;;4980032;28;20231;-60
2023/12/06 02:32:37;;;;;;;4.13;3.72;;;;;;;;;;4979696;28;20596;-60
2023/12/06 02:35:07;;;;;;;4.43;4.03;;;;;;;;;;4980068;28;20207;-60
2023/12/06 02:37:36;;;;;;;4.53;4.13;;;;;;;;;;4979560;28;20235;-60
2023/12/06 02:40:06;;;;;;;4.68;4.28;;;;;;;;;;4979901;28;20215;-60
2023/12/06 02:42:35;;;;;;;4.10;3.70;;;;;;;;;;4979645;28;20258;-60
2023/12/06 02:45:02;;;;;;;4.13;3.72;;;;;;;;;;4980190;28;20320;-60
2023/12/06 02:47:29;;;;;;;4.40;4.00;;;;;;;;;;4979899;28;20599;-60
2023/12/06 02:49:57;;;;;;;4.25;3.85;;;;;;;;;;4980028;28;20234;-60
2023/12/06 02:52:24;;;;;;;4.40;4.00;;;;;;;;;;4979410;28;20219;-60
2023/12/06 02:54:52;;;;;;;3.90;3.60;;;;;;;;;;4979660;28;20219;-60
2023/12/06 02:57:19;;;;;;;4.18;3.88;;;;;;;;;;4979718;28;20207;-60
2023/12/06 02:59:48;;;;;;;4.28;3.88;;;;;;;;;;4979391;28;20242;-60
2023/12/06 03:02:15;;;;;;;4.10;3.70;;;;;;;;;;4979341;28;20599;-60
2023/12/06 03:04:42;;;;;;;3.83;3.53;;;;;;;;;;4979005;28;20466;-60
2023/12/06 03:07:10;;;;;;;4.30;3.90;;;;;;;;;;4979094;28;20553;-60
2023/12/06 03:09:37;;;;;;;3.92;3.60;;;;;;;;;;4979502;28;20647;-60
2023/12/06 03:12:07;;;;;;;4.05;3.65;;;;;;;;;;4979391;28;20215;-60
2023/12/06 03:14:34;;;;;;;3.95;3.65;;;;;;;;;;4979247;28;20255;-60
2023/12/06 03:17:03;;;;;;;3.58;3.28;;;;;;;;;;4979067;28;20212;-60
2023/12/06 03:19:30;;;;;;;3.95;3.65;;;;;;;;;;4978953;28;20573;-60
2023/12/06 03:21:58;;;;;;;3.72;3.42;;;;;;;;;;4979319;28;20230;-60
2023/12/06 03:24:25;;;;;;;3.80;3.40;;;;;;;;;;4979371;28;20288;-60
2023/12/06 03:26:52;;;;;;;3.53;3.22;;;;;;;;;;4979141;28;20207;-60
2023/12/06 03:29:19;;;;;;;3.60;3.30;;;;;;;;;;4978552;28;20595;-60
2023/12/06 03:31:47;;;;;;;4.22;3.83;;;;;;;;;;4978713;28;20493;-60
2023/12/06 03:34:16;;;;;;;3.80;3.50;;;;;;;;;;4978863;28;20208;-60
2023/12/06 03:36:43;;;;;;;3.78;3.47;;;;;;;;;;4981290;28;20215;-60
2023/12/06 03:39:10;;;;;;;3.67;3.38;;;;;;;;;;5017794;28;20240;-60
2023/12/06 03:41:38;;;;;;;3.80;3.50;;;;;;;;;;5018090;28;20288;-60
2023/12/06 03:44:05;;;;;;;3.78;3.47;;;;;;;;;;5018046;28;20215;-60
2023/12/06 03:46:33;;;;;;;3.35;3.05;;;;;;;;;;5017757;28;20214;-60
2023/12/06 03:49:01;;;;;;;3.10;2.80;;;;;;;;;;5017697;28;20203;-60
2023/12/06 03:51:29;;;;;;;3.50;3.20;;;;;;;;;;5017815;28;20225;-60
2023/12/06 03:53:57;;;;;;;3.53;3.22;;;;;;;;;;5017716;28;20297;-60
2023/12/06 03:56:24;;;;;;;3.38;3.08;;;;;;;;;;5017135;28;20206;-61
2023/12/06 03:58:52;;;;;;;3.08;2.88;;;;;;;;;;5017621;28;20229;-60
2023/12/06 04:01:19;;;;;;;3.40;3.10;;;;;;;;;;5017365;28;20630;-60
2023/12/06 04:03:46;;;;;;;3.20;2.95;;;;;;;;;;5017481;28;20206;-60
2023/12/06 04:06:14;;;;;;;3.17;2.97;;;;;;;;;;5017625;28;20214;-60
2023/12/06 04:08:42;;;;;;;3.00;2.80;;;;;;;;;;5017410;28;20213;-60
2023/12/06 04:11:10;;;;;;;2.97;2.78;;;;;;;;;;5017242;28;20206;-60
2023/12/06 04:13:37;;;;;;;3.42;3.13;;;;;;;;;;5016915;28;20218;-60
2023/12/06 04:16:06;;;;;;;3.35;3.05;;;;;;;;;;5016909;28;20206;-60
2023/12/06 04:18:33;;;;;;;2.85;2.58;;;;;;;;;;5017312;28;20226;-60
2023/12/06 04:21:01;;;;;;;3.05;2.75;;;;;;;;;;5017086;28;20207;-60
2023/12/06 04:23:28;;;;;;;2.95;2.75;;;;;;;;;;5016922;28;20210;-60
2023/12/06 04:25:57;;;;;;;3.00;2.80;;;;;;;;;;5016863;28;20234;-60
2023/12/06 04:28:24;;;;;;;3.03;2.80;;;;;;;;;;5016701;28;20210;-60
2023/12/06 04:30:51;;;;;;;3.10;2.90;;;;;;;;;;5016889;28;20218;-60
2023/12/06 04:33:19;;;;;;;2.97;2.72;;;;;;;;;;5017157;28;20206;-60
2023/12/06 04:35:46;;;;;;;2.97;2.78;;;;;;;;;;5016989;28;20214;-60
2023/12/06 04:38:14;;;;;;;3.10;2.53;;;;;;;;;;5016616;28;20226;-60
2023/12/06 04:40:41;;;;;;;3.00;2.80;;;;;;;;;;5017160;28;20221;-60
2023/12/06 04:43:10;;;;;;;2.78;2.58;;;;;;;;;;5017289;28;20214;-60
2023/12/06 04:45:37;;;;;;;2.60;2.40;;;;;;;;;;5020849;28;20214;-60
2023/12/06 04:48:04;;;;;;;2.80;2.60;;;;;;;;;;5020559;28;20216;-60
2023/12/06 04:50:32;;;;;;;2.65;2.45;;;;;;;;;;5020870;28;20213;-60
2023/12/06 04:52:59;;;;;;;2.85;2.50;;;;;;;;;;5020268;28;20206;-60
2023/12/06 04:55:26;;;;;;;2.83;2.63;;;;;;;;;;5020526;28;20467;-60
2023/12/06 04:57:54;;;;;;;3.13;2.83;;;;;;;;;;5020614;28;20206;-60
2023/12/06 05:00:23;;;;;;;2.90;2.70;;;;;;;;;;5020568;28;20230;-60
2023/12/06 05:02:50;;;;;;;3.72;2.60;;;;;;;;;;5020199;28;20217;-60
2023/12/06 05:05:17;;;;;;;2.78;2.58;;;;;;;;;;5020455;28;20233;-60
2023/12/06 05:07:45;;;;;;;2.78;2.33;;;;;;;;;;5020359;28;20214;-60
2023/12/06 05:10:12;;;;;;;2.70;2.50;;;;;;;;;;5019850;28;20202;-60
2023/12/06 05:12:40;;;;;;;2.55;2.35;;;;;;;;;;5020066;28;20217;-60
2023/12/06 05:15:07;;;;;;;2.42;2.22;;;;;;;;;;5020232;28;20329;-60
2023/12/06 05:17:36;;;;;;;2.60;2.40;;;;;;;;;;5019830;28;20213;-60
2023/12/06 05:20:03;;;;;;;2.45;2.25;;;;;;;;;;5020348;28;20233;-60
2023/12/06 05:22:31;;;;;;;2.47;2.28;;;;;;;;;;5020172;28;20206;-60
2023/12/06 05:24:58;;;;;;;2.35;2.17;;;;;;;;;;5019656;28;20237;-60
2023/12/06 05:27:26;;;;;;;2.30;2.10;;;;;;;;;;5019512;28;20214;-60
2023/12/06 05:29:53;;;;;;;2.58;2.38;;;;;;;;;;5019711;28;20211;-60
2023/12/06 05:32:21;;;;;;;2.60;2.40;;;;;;;;;;5019750;28;20214;-60
2023/12/06 05:34:50;;;;;;;2.40;2.20;;;;;;;;;;5020086;28;20214;-60
2023/12/06 05:37:17;;;;;;;2.50;2.30;;;;;;;;;;5019186;28;20227;-60
2023/12/06 05:39:45;;;;;;;2.50;2.30;;;;;;;;;;5018107;28;20237;-60
2023/12/06 05:42:12;;;;;;;2.47;2.10;;;;;;;;;;5018405;28;20221;-60
2023/12/06 05:44:40;;;;;;;2.35;2.15;;;;;;;;;;5019047;28;20214;-60
2023/12/06 05:47:07;;;;;;;2.40;2.20;;;;;;;;;;5018780;28;20638;-60
2023/12/06 05:49:35;;;;;;;2.20;2.00;;;;;;;;;;5018457;28;20249;-60
2023/12/06 05:52:03;;;;;;;2.25;2.05;;;;;;;;;;5018380;28;20214;-60
2023/12/06 05:54:31;;;;;;;2.40;2.20;;;;;;;;;;5018138;28;20206;-60
2023/12/06 05:56:58;;;;;;;2.50;2.15;;;;;;;;;;5017775;28;20214;-60
2023/12/06 05:59:26;;;;;;;2.30;2.10;;;;;;;;;;5018426;28;20257;-60
2023/12/06 06:01:53;;;;;;;2.42;2.22;;;;;;;;;;5016458;28;20237;-60
2023/12/06 06:04:20;;;;;;;2.22;2.03;;;;;;;;;;5016729;28;20213;-60
2023/12/06 06:06:48;;;;;;;2.35;2.15;;;;;;;;;;5016343;28;20707;-60
2023/12/06 06:09:16;;;;;;;2.17;1.98;;;;;;;;;;5017413;28;20575;-60
2023/12/06 06:11:44;;;;;;;1.92;1.83;;;;;;;;;;5017668;28;20544;-60
2023/12/06 06:14:11;;;;;;;1.90;1.80;;;;;;;;;;5017621;28;20230;-60
2023/12/06 06:16:38;;;;;;;1.92;1.83;;;;;;;;;;5016918;28;20583;-60
2023/12/06 06:19:05;;;;;;;2.08;1.95;;;;;;;;;;5016930;28;20497;-60
2023/12/06 06:21:33;;;;;;;1.77;1.67;;;;;;;;;;5018197;28;20202;-60
2023/12/06 06:24:00;;;;;;;2.10;1.92;;;;;;;;;;5018197;28;20237;-60
2023/12/06 06:26:29;;;;;;;1.90;1.80;;;;;;;;;;5016829;28;20557;-60
2023/12/06 06:28:56;;;;;;;2.03;1.83;;;;;;;;;;5017191;28;20214;-60
2023/12/06 06:31:24;;;;;;;2.20;2.00;;;;;;;;;;5015843;28;20213;-60
2023/12/06 06:33:51;;;;;;;2.10;1.90;;;;;;;;;;5016439;28;20206;-60
2023/12/06 06:36:19;;;;;;;1.88;1.77;;;;;;;;;;5017004;28;20302;-60
2023/12/06 06:38:46;;;;;;;2.30;1.70;;;;;;;;;;5017318;28;20244;-60
2023/12/06 06:41:14;;;;;;;6.75;2.10;;;;;;;;;;5015697;28;20214;-60
2023/12/06 06:43:43;;;;;;;1.90;1.70;;;;;;;;;;5015573;28;20206;-60
2023/12/06 06:46:10;;;;;;;3.58;2.08;;;;;;;;;;5016494;28;20206;-60
2023/12/06 06:48:38;;;;;;;2.05;1.70;;;;;;;;;;5015723;28;20390;-60
2023/12/06 06:51:05;;;;;;;1.80;1.70;;;;;;;;;;5016235;28;20528;-60
2023/12/06 06:53:33;;;;;;;1.80;1.70;;;;;;;;;;5015590;28;20206;-60
2023/12/06 06:56:00;;;;;;;1.80;1.55;;;;;;;;;;5015649;28;20609;-60
2023/12/06 06:58:28;;;;;;;2.58;1.75;;;;;;;;;;5015791;28;20614;-60
2023/12/06 07:00:56;;;;;;;2.53;1.58;;;;;;;;;;5015946;28;20226;-60
2023/12/06 07:03:24;;;;;;;2.10;1.90;;;;;;;;;;5016857;28;20213;-60
2023/12/06 07:05:51;;;;;;;3.10;1.60;;;;;;;;;;5014914;28;20206;-60
2023/12/06 07:08:18;;;;;;;1.60;1.50;;;;;;;;;;5016026;28;20217;-60
2023/12/06 07:10:48;;;;;;;1.80;1.40;;;;;;;;;;5015910;28;20268;-60
2023/12/06 07:13:15;;;;;;;1.83;1.70;;;;;;;;;;5016117;28;20270;-60
2023/12/06 07:15:43;;;;;;;1.42;1.30;;;;;;;;;;5017834;28;20234;-60
2023/12/06 07:18:11;;;;;;;1.60;1.50;;;;;;;;;;5017314;28;20214;-60
2023/12/06 07:20:38;;;;;;;2.28;1.33;;;;;;;;;;5016521;28;20241;-60
2023/12/06 07:23:06;;;;;;;1.65;1.55;;;;;;;;;;5016454;28;20218;-60
2023/12/06 07:25:34;;;;;;;1.65;1.48;;;;;;;;;;5016785;28;20214;-60
2023/12/06 07:28:02;;;;;;;1.40;1.30;;;;;;;;;;5016585;28;20574;-60
2023/12/06 07:30:30;;;;;;;1.70;1.60;;;;;;;;;;5016835;28;20261;-60
2023/12/06 07:32:57;;;;;;;1.50;1.40;;;;;;;;;;5016280;28;20206;-60
2023/12/06 07:35:26;;;;;;;1.38;1.17;;;;;;;;;;5016200;28;20206;-60
2023/12/06 07:37:53;;;;;;;2.25;1.30;;;;;;;;;;5016658;28;20261;-60
2023/12/06 07:40:21;;;;;;;1.80;1.70;;;;;;;;;;5016525;28;20238;-60
2023/12/06 07:42:48;;;;;;;2.08;1.63;;;;;;;;;;5016309;28;20260;-60
2023/12/06 07:45:15;;;;;;;2.45;1.45;;;;;;;;;;5016308;28;20214;-60
2023/12/06 07:47:42;;;;;;;1.40;1.30;;;;;;;;;;5016050;28;20213;-60
2023/12/06 07:50:10;;;;;;;1.52;1.15;;;;;;;;;;5015771;28;20571;-60
2023/12/06 07:52:40;;;;;;;1.63;1.25;;;;;;;;;;5016183;28;20206;-60
2023/12/06 07:55:09;;;;;;;1.23;1.13;;;;;;;;;;5015986;28;20206;-60
2023/12/06 07:57:37;;;;;;;1.42;1.33;;;;;;;;;;5016144;28;20256;-60
2023/12/06 08:00:07;;;;;;;1.50;1.30;;;;;;;;;;5013302;28;20226;-60
2023/12/06 08:02:39;;;;;;;1.35;1.20;;;;;;;;;;5015876;28;20214;-60
2023/12/06 08:05:07;;;;;;;1.63;1.20;;;;;;;;;;5015741;28;20309;-60
2023/12/06 08:07:35;;;;;;;1.38;1.25;;;;;;;;;;5016124;28;20213;-60
2023/12/06 08:10:08;;;;;;;1.27;1.17;;;;;;;;;;5015931;28;20209;-60
2023/12/06 08:12:35;;;;;;;1.52;1.42;;;;;;;;;;5015424;28;20219;-60
2023/12/06 08:15:05;;;;;;;1.30;1.20;;;;;;;;;;5015689;28;20236;-60
2023/12/06 08:17:33;;;;;;;1.23;1.13;;;;;;;;;;5016071;28;20717;-60
2023/12/06 08:20:00;;;;;;;1.20;1.10;;;;;;;;;;5019659;28;20288;-60
2023/12/06 08:22:28;;;;;;;1.15;1.05;;;;;;;;;;5020138;28;20272;-60
2023/12/06 08:24:57;;;;;;;1.42;1.30;;;;;;;;;;5019887;28;20209;-60
2023/12/06 08:27:27;;;;;;;1.20;1.10;;;;;;;;;;5020233;28;20202;-60
2023/12/06 08:29:56;;;;;;;1.20;1.10;;;;;;;;;;5019679;28;20252;-60
2023/12/06 08:32:23;;;;;;;1.63;1.33;;;;;;;;;;5019569;28;20251;-60
2023/12/06 08:34:50;;;;;;;1.42;1.33;;;;;;;;;;5019005;28;20516;-60
2023/12/06 08:37:17;;;;;;;1.27;1.10;;;;;;;;;;5019091;28;20269;-60
2023/12/06 08:39:45;;;;;;;1.25;1.13;;;;;;;;;;5019709;28;20688;-60
2023/12/06 08:42:14;;;;;;;1.30;1.20;;;;;;;;;;5019317;28;20272;-60
2023/12/06 08:44:44;;;;;;;0.98;0.98;;;;;;;;;;5019558;28;20210;-60
2023/12/06 08:47:11;;;;;;;1.38;1.25;;;;;;;;;;5019239;28;20214;-60
2023/12/06 08:49:39;;;;;;;1.17;1.08;;;;;;;;;;5019571;28;20303;-60
2023/12/06 08:52:07;;;;;;;3.38;1.23;;;;;;;;;;5019039;28;20232;-60
2023/12/06 08:54:35;;;;;;;1.20;1.10;;;;;;;;;;5019137;28;20207;-60
2023/12/06 08:57:03;;;;;;;1.45;1.00;;;;;;;;;;5019535;28;20210;-60
2023/12/06 08:59:31;;;;;;;1.08;0.90;;;;;;;;;;5018884;28;20207;-60
2023/12/06 09:01:59;;;;;;;1.30;1.20;;;;;;;;;;5019377;28;20235;-60
2023/12/06 09:04:27;;;;;;;2.42;1.80;;;;;;;;;;5018194;28;20206;-60
2023/12/06 09:06:54;;;;;;;192.55;136.25;;;;;;;;;;5019167;28;20256;-60
2023/12/06 09:09:21;;;;;;;150.93;105.45;;;;;;;;;;5019294;28;20206;-60
2023/12/06 09:11:49;;;;;;;123.65;88.43;;;;;;;;;;5019407;28;20229;-60
2023/12/06 09:14:17;;;;;;;107.95;73.93;;;;;;;;;;5018693;28;20207;-60
2023/12/06 09:17:04;;;;;;;98.40;68.78;;;;;;;;;;5019358;28;20704;-60
2023/12/06 09:21:59;;;;;;;88.00;62.88;;;;;;;;;;5048737;28;20221;-60
2023/12/06 09:24:27;;;;;;;87.57;61.20;;;;;;;;;;5057974;28;20746;-60
2023/12/06 09:26:54;;;;;;;81.28;58.88;;;;;;;;;;5058722;28;20232;-60
2023/12/06 09:29:22;;;;;;;77.63;56.47;;;;;;;;;;5058051;28;20216;-60
2023/12/06 09:31:49;;;;;;;73.50;53.72;;;;;;;;;;5058321;28;20209;-60
2023/12/06 09:34:18;;;;;;;71.35;52.30;;;;;;;;;;5058066;28;20205;-60
2023/12/06 09:36:45;;;;;;;69.97;50.40;;;;;;;;;;5057579;28;20213;-60
2023/12/06 09:39:15;;;;;;;64.40;48.13;;;;;;;;;;5058095;28;20627;-60
2023/12/06 09:41:44;;;;;;;62.08;46.45;;;;;;;;;;5057197;28;20524;-60
2023/12/06 09:44:11;;;;;;;59.80;44.75;;;;;;;;;;5057628;28;20205;-60
2023/12/06 09:46:39;;;;;;;58.00;43.05;;;;;;;;;;5057679;28;20295;-60
2023/12/06 09:49:06;;;;;;;54.70;41.33;;;;;;;;;;5058218;28;20205;-60
2023/12/06 09:51:35;;;;;;;52.22;39.58;;;;;;;;;;5057323;28;20201;-60
2023/12/06 09:54:02;;;;;;;50.35;37.70;;;;;;;;;;5057735;28;20200;-60
2023/12/06 09:56:31;;;;;;;50.75;37.88;;;;;;;;;;5058491;28;20205;-60
2023/12/06 09:58:58;;;;;;;49.65;36.40;;;;;;;;;;5056823;28;20204;-60
2023/12/06 10:01:26;;;;;;;49.08;36.50;;;;;;;;;;5057278;28;20544;-60
2023/12/06 10:03:54;;;;;;;46.58;35.00;;;;;;;;;;5057405;28;20205;-60
2023/12/06 10:06:21;;;;;;;44.15;33.83;;;;;;;;;;5057387;28;20205;-60
2023/12/06 10:08:55;;;;;;;42.72;33.22;;;;;;;;;;5057224;28;20205;-61
2023/12/06 10:11:24;;;;;;;86.43;63.17;;;;;;;;;;5057181;28;20209;-60
2023/12/06 10:13:51;;;;;;;94.85;66.55;;;;;;;;;;5057568;28;20205;-60
2023/12/06 10:16:19;;;;;;;89.75;61.28;;;;;;;;;;5056634;28;20580;-60
2023/12/06 10:18:48;;;;;;;83.35;58.83;;;;;;;;;;5056585;28;20236;-60
2023/12/06 10:21:15;;;;;;;75.57;54.65;;;;;;;;;;5057119;28;20323;-61
2023/12/06 10:23:43;;;;;;;76.53;54.00;;;;;;;;;;5057418;28;20212;-61
2023/12/06 10:26:15;;;;;;;68.82;51.78;;;;;;;;;;5056665;28;20204;-61
2023/12/06 10:28:43;;;;;;;83.20;58.17;;;;;;;;;;5056969;28;20266;-61
2023/12/06 10:31:10;;;;;;;88.93;68.40;;;;;;;;;;5056926;28;20201;-60
2023/12/06 10:33:40;;;;;;;90.25;71.25;;;;;;;;;;5056811;28;20789;-60
2023/12/06 10:36:09;;;;;;;83.80;66.13;;;;;;;;;;5056383;28;20216;-60
2023/12/06 10:38:38;;;;;;;80.80;62.13;;;;;;;;;;5056530;28;20204;-60
2023/12/06 10:41:06;;;;;;;81.35;62.28;;;;;;;;;;5054988;28;20228;-60
2023/12/06 10:43:36;;;;;;;80.68;63.33;;;;;;;;;;5056496;28;20575;-60
2023/12/06 10:46:03;;;;;;;86.65;64.97;;;;;;;;;;5056305;28;20224;-61
2023/12/06 10:48:31;;;;;;;79.63;61.40;;;;;;;;;;5055789;28;20216;-60
2023/12/06 10:50:59;;;;;;;75.60;58.00;;;;;;;;;;5055563;28;20252;-60
2023/12/06 10:53:28;;;;;;;72.60;56.72;;;;;;;;;;5055170;28;20219;-60
2023/12/06 10:55:55;;;;;;;70.03;55.25;;;;;;;;;;5055636;28;20278;-60
2023/12/06 10:58:25;;;;;;;65.78;53.47;;;;;;;;;;5055942;28;20209;-60
2023/12/06 11:00:54;;;;;;;64.50;51.85;;;;;;;;;;5055023;28;20702;-60
2023/12/06 11:03:22;;;;;;;66.30;49.58;;;;;;;;;;5061973;28;20210;-61
2023/12/06 11:05:52;;;;;;;61.97;48.92;;;;;;;;;;5075634;28;20205;-61
2023/12/06 11:08:32;;;;;;;57.17;47.83;;;;;;;;;;5075120;28;20204;-60
2023/12/06 11:11:05;;;;;;;57.95;46.03;;;;;;;;;;5074713;28;20777;-60
2023/12/06 11:13:43;;;;;;;56.92;45.03;;;;;;;;;;5073662;28;20215;-60
2023/12/06 11:16:19;;;;;;;52.42;42.17;;;;;;;;;;5074748;28;20317;-60
2023/12/06 11:18:47;;;;;;;53.15;42.42;;;;;;;;;;5075630;28;20236;-60
2023/12/06 11:21:15;;;;;;;51.00;41.13;;;;;;;;;;5075006;28;20738;-60
2023/12/06 11:23:42;;;;;;;50.40;38.65;;;;;;;;;;5074465;28;20307;-60
2023/12/06 11:26:10;;;;;;;48.00;37.75;;;;;;;;;;5074769;28;20200;-60
2023/12/06 11:28:40;;;;;;;46.35;37.15;;;;;;;;;;5075048;28;20212;-60
2023/12/06 11:31:08;;;;;;;46.30;36.50;;;;;;;;;;5074643;28;20614;-60
2023/12/06 11:33:36;;;;;;;43.63;35.20;;;;;;;;;;5074604;28;20212;-60
2023/12/06 11:36:04;;;;;;;44.63;33.97;;;;;;;;;;5075021;28;20215;-60
2023/12/06 11:38:34;;;;;;;42.47;34.53;;;;;;;;;;5074272;28;20207;-60
2023/12/06 11:41:04;;;;;;;40.47;32.10;;;;;;;;;;5073160;28;20231;-60
2023/12/06 11:43:32;;;;;;;42.53;33.92;;;;;;;;;;5074533;28;20212;-60
2023/12/06 11:46:03;;;;;;;37.72;30.90;;;;;;;;;;5074108;28;20227;-60
2023/12/06 11:48:30;;;;;;;38.40;30.80;;;;;;;;;;5073696;28;20200;-60
2023/12/06 11:51:01;;;;;;;38.50;29.52;;;;;;;;;;5073923;28;20204;-60
2023/12/06 11:53:28;;;;;;;38.50;29.73;;;;;;;;;;5074087;28;20220;-60
2023/12/06 11:55:56;;;;;;;36.03;29.95;;;;;;;;;;5074788;28;20207;-60
2023/12/06 11:58:24;;;;;;;34.08;27.73;;;;;;;;;;5073942;28;20215;-60
2023/12/06 12:00:52;;;;;;;35.70;28.05;;;;;;;;;;5074221;28;20654;-60
2023/12/06 12:03:20;;;;;;;34.00;27.50;;;;;;;;;;5074347;28;20284;-60
2023/12/06 12:05:48;;;;;;;33.95;27.73;;;;;;;;;;5073860;28;20779;-60
2023/12/06 12:08:17;;;;;;;31.50;25.05;;;;;;;;;;5074479;28;20211;-60
2023/12/06 12:10:45;;;;;;;30.92;25.25;;;;;;;;;;5074437;28;20204;-60
2023/12/06 12:13:19;;;;;;;28.75;24.42;;;;;;;;;;5073838;28;20208;-60
2023/12/06 12:15:53;;;;;;;30.23;24.05;;;;;;;;;;5074643;28;20526;-60
2023/12/06 12:18:21;;;;;;;28.85;22.63;;;;;;;;;;5074410;28;20210;-60
2023/12/06 12:20:48;;;;;;;27.58;22.60;;;;;;;;;;5075035;28;20239;-60
2023/12/06 12:23:17;;;;;;;25.90;21.67;;;;;;;;;;5074130;28;20204;-60
2023/12/06 12:25:47;;;;;;;27.33;22.15;;;;;;;;;;5073126;28;20200;-60
2023/12/06 12:28:17;;;;;;;24.98;21.15;;;;;;;;;;5074382;28;20227;-60
2023/12/06 12:30:46;;;;;;;26.40;20.83;;;;;;;;;;5074012;28;20204;-60
2023/12/06 12:33:14;;;;;;;24.35;19.85;;;;;;;;;;5074711;28;20204;-60
2023/12/06 12:35:42;;;;;;;25.52;20.45;;;;;;;;;;5073962;28;20283;-60
2023/12/06 12:38:10;;;;;;;23.70;19.50;;;;;;;;;;5074081;28;20200;-60
2023/12/06 12:40:41;;;;;;;24.98;19.08;;;;;;;;;;5073594;28;20215;-60
2023/12/06 12:43:09;;;;;;;21.02;18.45;;;;;;;;;;5073609;28;20200;-60
2023/12/06 12:45:36;;;;;;;22.45;18.42;;;;;;;;;;5072521;28;20211;-60
2023/12/06 12:48:05;;;;;;;21.60;17.17;;;;;;;;;;5073676;28;20575;-60
2023/12/06 12:50:32;;;;;;;22.42;17.70;;;;;;;;;;5073978;28;20209;-60
2023/12/06 12:52:59;;;;;;;20.58;17.08;;;;;;;;;;5073789;28;20326;-60
2023/12/06 12:55:27;;;;;;;22.05;16.85;;;;;;;;;;5073167;28;20204;-60
2023/12/06 12:57:57;;;;;;;20.48;15.98;;;;;;;;;;5074371;28;20212;-60
2023/12/06 13:00:25;;;;;;;19.27;16.38;;;;;;;;;;5073780;28;20223;-60
2023/12/06 13:02:53;;;;;;;21.83;14.88;;;;;;;;;;5073543;28;20263;-60
2023/12/06 13:05:21;;;;;;;19.63;14.90;;;;;;;;;;5075422;28;20208;-60
2023/12/06 13:07:51;;;;;;;17.63;14.70;;;;;;;;;;5077414;28;20197;-60
2023/12/06 13:10:18;;;;;;;19.25;14.30;;;;;;;;;;5077217;28;20330;-60
2023/12/06 13:12:46;;;;;;;16.95;13.55;;;;;;;;;;5077453;28;20480;-60
2023/12/06 13:15:16;;;;;;;19.92;16.90;;;;;;;;;;5078283;28;20223;-60
2023/12/06 13:17:43;;;;;;;18.92;16.85;;;;;;;;;;5077413;28;20211;-60
2023/12/06 13:20:11;;;;;;;17.88;15.63;;;;;;;;;;5076791;28;20240;-60
2023/12/06 13:22:39;;;;;;;17.67;15.35;;;;;;;;;;5076080;28;20228;-60
2023/12/06 13:25:07;;;;;;;19.73;15.63;;;;;;;;;;5076163;28;20259;-60
2023/12/06 13:27:34;;;;;;;18.90;15.60;;;;;;;;;;5077030;28;20273;-60
2023/12/06 13:30:02;;;;;;;16.05;14.35;;;;;;;;;;5077484;28;20204;-60
2023/12/06 13:32:30;;;;;;;16.38;13.85;;;;;;;;;;5076912;28;20207;-60
2023/12/06 13:34:58;;;;;;;17.73;13.82;;;;;;;;;;5076600;28;20207;-60
2023/12/06 13:37:25;;;;;;;16.13;13.57;;;;;;;;;;5076756;28;20214;-60
2023/12/06 13:39:55;;;;;;;15.15;12.95;;;;;;;;;;5073315;28;20205;-60
2023/12/06 13:42:26;;;;;;;13.95;12.45;;;;;;;;;;5056475;28;20294;-60
2023/12/06 13:44:53;;;;;;;14.35;12.65;;;;;;;;;;5056256;28;20292;-60
2023/12/06 13:47:21;;;;;;;13.77;11.90;;;;;;;;;;5056692;28;20215;-60
2023/12/06 13:49:50;;;;;;;13.40;11.55;;;;;;;;;;5056751;28;20209;-60
2023/12/06 13:52:17;;;;;;;12.07;10.48;;;;;;;;;;5056293;28;20703;-60
2023/12/06 13:54:45;;;;;;;12.00;10.80;;;;;;;;;;5055546;28;20232;-60
2023/12/06 13:57:12;;;;;;;11.70;10.50;;;;;;;;;;5056033;28;20209;-60
2023/12/06 13:59:39;;;;;;;339.15;207.68;;;;;;;;;;5055530;28;20204;-70
2023/12/06 14:02:07;;;;;;;232.25;136.65;;;;;;;;;;5056101;28;20224;-61
2023/12/06 14:04:34;;;;;;;183.32;112.72;;;;;;;;;;5056428;28;20204;-61
2023/12/06 14:07:03;;;;;;;192.48;117.90;;;;;;;;;;5055446;28;20205;-61
2023/12/06 14:09:30;;;;;;;451.17;297.88;;;;;;;;;;5056496;28;20215;-61
2023/12/06 14:11:58;;;;;;;418.27;271.23;;;;;;;;;;5055486;28;20202;-61
2023/12/06 14:14:25;;;;;;;382.77;244.60;;;;;;;;;;5055571;28;20532;-61
2023/12/06 14:16:53;;;;;;;362.73;225.45;;;;;;;;;;5056430;28;20213;-61
2023/12/06 14:19:20;;;;;;;360.75;223.48;;;;;;;;;;5055563;28;20215;-61
2023/12/06 14:21:48;;;;;;;347.23;219.85;;;;;;;;;;5055389;28;20245;-61
2023/12/06 14:24:16;;;;;;;335.30;214.00;;;;;;;;;;5055527;28;20212;-61
2023/12/06 14:26:44;;;;;;;337.92;209.90;;;;;;;;;;5054784;28;20588;-61
2023/12/06 14:29:11;;;;;;;327.65;207.95;;;;;;;;;;5055112;28;20656;-61
2023/12/06 14:31:38;;;;;;;317.13;195.20;;;;;;;;;;5054924;28;20197;-61
2023/12/06 14:34:08;;;;;;;303.35;192.40;;;;;;;;;;5054401;28;20204;-61
2023/12/06 14:36:36;;;;;;;301.38;181.52;;;;;;;;;;5054954;28;20197;-61
2023/12/06 14:39:04;;;;;;;284.25;181.57;;;;;;;;;;5054597;28;20611;-61